createdAt,value
2022-12-19T00:01:39.726Z,28.30
2022-12-19T00:04:09.173Z,28.47
2022-12-19T00:06:43.646Z,27.53
2022-12-19T00:09:11.972Z,29.17
2022-12-19T00:11:40.405Z,26.27
2022-12-19T00:14:10.050Z,26.83
2022-12-19T00:16:38.145Z,26.27
2022-12-19T00:19:06.248Z,24.37
2022-12-19T00:21:35.472Z,30.60
2022-12-19T00:24:16.282Z,23.97
2022-12-19T00:26:49.481Z,23.13
2022-12-19T00:29:17.042Z,21.10
2022-12-19T00:31:45.398Z,25.77
2022-12-19T00:34:15.209Z,19.30
2022-12-19T00:36:42.806Z,25.43
2022-12-19T00:39:12.027Z,21.97
2022-12-19T00:41:42.159Z,25.53
2022-12-19T00:44:16.850Z,28.07
2022-12-19T00:46:51.838Z,25.80
2022-12-19T00:49:20.295Z,24.47
2022-12-19T00:51:47.712Z,29.93
2022-12-19T00:54:16.547Z,26.83
2022-12-19T00:56:44.408Z,24.23
2022-12-19T00:59:11.858Z,23.27
2022-12-19T01:01:41.687Z,27.57
2022-12-19T01:04:29.727Z,19.80
2022-12-19T01:07:01.786Z,25.77
2022-12-19T01:09:34.805Z,25.93
2022-12-19T01:12:21.019Z,24.40
2022-12-19T01:14:54.491Z,25.07
2022-12-19T01:17:34.565Z,27.23
2022-12-19T01:20:07.312Z,20.73
2022-12-19T01:22:36.071Z,26.20
2022-12-19T01:25:05.525Z,26.10
2022-12-19T01:27:32.956Z,23.93
2022-12-19T01:30:00.366Z,23.77
2022-12-19T01:32:27.799Z,28.77
2022-12-19T01:34:55.224Z,18.87
2022-12-19T01:37:22.665Z,21.57
2022-12-19T01:39:50.100Z,20.60
2022-12-19T01:42:23.536Z,27.77
2022-12-19T01:45:31.850Z,23.97
2022-12-19T01:48:08.815Z,22.50
2022-12-19T01:50:40.780Z,26.27
2022-12-19T01:53:14.620Z,27.17
2022-12-19T01:55:44.220Z,25.77
2022-12-19T01:58:13.914Z,26.50
2022-12-19T02:00:43.201Z,24.10
2022-12-19T02:03:15.849Z,25.17
2022-12-19T02:05:44.768Z,19.07
2022-12-19T02:08:14.125Z,25.90
2022-12-19T02:10:41.607Z,27.33
2022-12-19T02:13:09.518Z,30.17
2022-12-19T02:15:47.238Z,25.07
2022-12-19T02:18:26.146Z,26.93
2022-12-19T02:21:23.014Z,30.40
2022-12-19T02:24:15.178Z,28.97
2022-12-19T02:26:52.800Z,24.67
2022-12-19T02:29:28.297Z,31.60
2022-12-19T02:31:59.367Z,23.60
2022-12-19T02:34:32.764Z,26.17
2022-12-19T02:37:07.667Z,25.97
2022-12-19T02:39:42.685Z,29.83
2022-12-19T02:42:12.289Z,28.27
2022-12-19T02:44:42.618Z,28.90
2022-12-19T02:47:12.258Z,27.60
2022-12-19T02:49:40.213Z,20.13
2022-12-19T02:52:12.355Z,20.43
2022-12-19T02:54:42.288Z,21.37
2022-12-19T02:57:17.511Z,23.47
2022-12-19T02:59:55.950Z,19.30
2022-12-19T03:02:32.425Z,17.83
2022-12-19T03:05:07.435Z,24.90
2022-12-19T03:07:38.124Z,21.00
2022-12-19T03:10:12.345Z,24.53
2022-12-19T03:12:45.072Z,24.50
2022-12-19T03:15:13.071Z,18.40
2022-12-19T03:17:41.878Z,25.10
2022-12-19T03:20:11.988Z,25.90
2022-12-19T03:22:39.412Z,25.63
2022-12-19T03:25:08.249Z,24.27
2022-12-19T03:27:36.707Z,24.17
2022-12-19T03:30:06.496Z,27.27
2022-12-19T03:32:36.001Z,31.33
2022-12-19T03:35:06.762Z,22.97
2022-12-19T03:37:38.173Z,28.17
2022-12-19T03:40:09.620Z,20.73
2022-12-19T03:42:56.325Z,23.00
2022-12-19T03:45:27.583Z,28.13
2022-12-19T03:47:58.264Z,25.00
2022-12-19T03:50:31.531Z,28.00
2022-12-19T03:53:04.531Z,30.43
2022-12-19T03:55:37.206Z,28.20
2022-12-19T03:58:07.437Z,24.63
2022-12-19T04:00:35.826Z,27.03
2022-12-19T04:03:03.929Z,26.03
2022-12-19T04:05:33.805Z,26.57
2022-12-19T04:08:03.901Z,25.03
2022-12-19T04:10:33.470Z,27.00
2022-12-19T04:13:04.148Z,30.90
2022-12-19T04:15:39.044Z,30.33
2022-12-19T04:18:08.119Z,26.17
2022-12-19T04:20:38.097Z,23.90
2022-12-19T04:23:08.584Z,26.60
2022-12-19T04:25:38.918Z,24.30
2022-12-19T04:28:10.231Z,28.33
2022-12-19T04:30:39.381Z,24.30
2022-12-19T04:33:08.018Z,27.93
2022-12-19T04:35:37.253Z,28.60
2022-12-19T04:38:04.765Z,27.80
2022-12-19T04:40:40.657Z,26.57
2022-12-19T04:43:09.243Z,24.97
2022-12-19T04:45:36.776Z,25.37
2022-12-19T04:48:05.151Z,19.23
2022-12-19T04:50:37.050Z,22.80
2022-12-19T04:53:05.177Z,26.17
2022-12-19T04:55:32.640Z,26.43
2022-12-19T04:58:00.150Z,28.43
2022-12-19T05:00:27.585Z,31.33
2022-12-19T05:02:55.213Z,27.33
2022-12-19T05:05:22.834Z,27.17
2022-12-19T05:07:52.174Z,22.67
2022-12-19T05:10:19.759Z,20.37
2022-12-19T05:12:47.394Z,28.10
2022-12-19T05:15:14.988Z,25.97
2022-12-19T05:17:43.922Z,29.77
2022-12-19T05:20:12.425Z,30.63
2022-12-19T05:22:39.887Z,20.83
2022-12-19T05:25:10.079Z,28.00
2022-12-19T05:27:37.537Z,25.17
2022-12-19T05:30:05.952Z,23.70
2022-12-19T05:32:34.725Z,26.40
2022-12-19T05:35:02.206Z,25.27
2022-12-19T05:37:29.729Z,26.83
2022-12-19T05:39:57.214Z,29.70
2022-12-19T05:42:27.270Z,26.27
2022-12-19T05:44:54.768Z,17.47
2022-12-19T05:47:22.297Z,25.47
2022-12-19T05:49:49.780Z,26.67
2022-12-19T05:52:17.259Z,26.17
2022-12-19T05:54:44.866Z,24.73
2022-12-19T05:57:12.549Z,26.07
2022-12-19T05:59:41.431Z,30.97
2022-12-19T06:02:09.313Z,32.90
2022-12-19T06:04:36.849Z,32.17
2022-12-19T06:07:04.470Z,22.63
2022-12-19T06:09:32.076Z,28.07
2022-12-19T06:11:59.532Z,30.13
2022-12-19T06:14:27.066Z,34.77
2022-12-19T06:16:55.916Z,32.23
2022-12-19T06:19:23.663Z,30.53
2022-12-19T06:21:51.319Z,28.90
2022-12-19T06:24:18.844Z,35.50
2022-12-19T06:26:46.378Z,27.77
2022-12-19T06:29:13.860Z,25.30
2022-12-19T06:31:41.357Z,33.50
2022-12-19T06:34:13.368Z,29.73
2022-12-19T06:36:46.028Z,31.23
2022-12-19T06:39:14.247Z,26.70
2022-12-19T06:41:59.844Z,32.27
2022-12-19T06:44:27.478Z,25.67
2022-12-19T06:46:54.968Z,28.83
2022-12-19T06:49:23.840Z,32.80
2022-12-19T06:51:51.380Z,26.97
2022-12-19T06:54:18.969Z,25.60
2022-12-19T06:56:46.496Z,24.80
2022-12-19T06:59:15.259Z,34.03
2022-12-19T07:01:55.388Z,32.03
2022-12-19T07:04:28.167Z,25.23
2022-12-19T07:06:55.765Z,34.90
2022-12-19T07:09:23.350Z,38.50
2022-12-19T07:11:50.831Z,34.27
2022-12-19T07:14:19.121Z,35.37
2022-12-19T07:16:47.436Z,34.03
2022-12-19T07:19:15.468Z,33.40
2022-12-19T07:21:44.732Z,29.40
2022-12-19T07:24:13.142Z,17.77
2022-12-19T07:26:40.959Z,31.77
2022-12-19T07:29:09.249Z,27.13
2022-12-19T07:31:37.240Z,23.23
2022-12-19T07:34:05.185Z,26.10
2022-12-19T07:36:32.718Z,20.37
2022-12-19T07:39:01.671Z,27.73
2022-12-19T07:41:29.151Z,21.03
2022-12-19T07:43:56.646Z,28.13
2022-12-19T07:46:24.237Z,26.37
2022-12-19T07:48:51.734Z,25.23
2022-12-19T07:51:21.053Z,24.10
2022-12-19T07:53:48.666Z,18.40
2022-12-19T07:56:17.791Z,16.83
2022-12-19T07:58:45.566Z,20.03
2022-12-19T08:01:13.172Z,19.17
2022-12-19T08:03:40.790Z,18.00
2022-12-19T08:06:08.868Z,15.17
2022-12-19T08:08:38.881Z,18.43
2022-12-19T08:11:10.273Z,19.60
2022-12-19T08:13:44.809Z,16.97
2022-12-19T08:16:14.267Z,14.70
2022-12-19T08:18:42.137Z,18.67
2022-12-19T08:21:09.898Z,16.20
2022-12-19T08:23:38.557Z,16.80
2022-12-19T08:26:07.535Z,16.93
2022-12-19T08:28:37.107Z,15.37
2022-12-19T08:31:09.463Z,15.27
2022-12-19T08:33:37.378Z,13.17
2022-12-19T08:36:05.966Z,18.27
2022-12-19T08:38:33.687Z,20.87
2022-12-19T08:41:01.229Z,17.73
2022-12-19T08:43:30.369Z,18.50
2022-12-19T08:45:58.447Z,19.67
2022-12-19T08:48:27.588Z,20.27
2022-12-19T08:50:57.258Z,11.93
2022-12-19T08:53:26.675Z,14.50
2022-12-19T08:55:56.127Z,17.10
2022-12-19T08:58:23.822Z,17.87
2022-12-19T09:00:57.535Z,17.37
2022-12-19T09:03:26.865Z,16.43
2022-12-19T09:06:08.255Z,15.77
2022-12-19T09:08:38.639Z,13.33
2022-12-19T09:11:09.140Z,19.90
2022-12-19T09:13:37.630Z,15.67
2022-12-19T09:16:15.131Z,12.93
2022-12-19T09:18:48.609Z,14.73
2022-12-19T09:21:16.849Z,13.63
2022-12-19T09:23:48.132Z,17.30
2022-12-19T09:26:18.053Z,13.87
2022-12-19T09:28:46.773Z,11.05
2022-12-19T09:31:16.191Z,12.87
2022-12-19T09:33:45.447Z,12.63
2022-12-19T09:36:13.942Z,16.80
2022-12-19T09:38:41.585Z,16.43
2022-12-19T09:41:22.774Z,14.10
2022-12-19T09:43:56.547Z,13.63
2022-12-19T09:46:32.702Z,11.97
2022-12-19T09:49:03.088Z,10.70
2022-12-19T09:51:34.127Z,14.80
2022-12-19T09:54:06.211Z,8.97
2022-12-19T09:56:46.360Z,11.83
2022-12-19T09:59:28.079Z,11.73
2022-12-19T10:02:21.822Z,15.40
2022-12-19T10:05:11.439Z,14.10
2022-12-19T10:08:07.160Z,10.60
2022-12-19T10:12:41.395Z,13.17
2022-12-19T10:13:40.630Z,10.93
2022-12-19T10:16:16.156Z,14.87
2022-12-19T10:18:56.038Z,12.97
2022-12-19T10:22:07.432Z,12.60
2022-12-19T10:24:35.393Z,11.43
2022-12-19T10:27:10.124Z,12.00
2022-12-19T10:29:55.677Z,10.40
2022-12-19T10:32:27.622Z,11.73
2022-12-19T10:34:55.276Z,11.93
2022-12-19T10:37:37.725Z,9.50
2022-12-19T10:40:20.063Z,12.50
2022-12-19T10:42:58.943Z,13.63
2022-12-19T10:45:38.700Z,12.00
2022-12-19T10:48:10.857Z,12.10
2022-12-19T10:50:38.424Z,10.17
2022-12-19T10:53:11.627Z,12.47
2022-12-19T10:55:43.915Z,10.37
2022-12-19T10:58:21.121Z,13.53
2022-12-19T11:01:00.806Z,11.07
2022-12-19T11:03:28.715Z,11.80
2022-12-19T11:05:58.037Z,12.23
2022-12-19T11:08:29.535Z,13.10
2022-12-19T11:11:46.018Z,11.73
2022-12-19T11:18:08.686Z,10.43
2022-12-19T11:22:16.065Z,11.77
2022-12-19T11:29:43.816Z,11.20
2022-12-19T11:30:08.450Z,12.43
2022-12-19T11:30:37.868Z,11.30
2022-12-19T11:30:46.427Z,12.97
2022-12-19T11:33:55.655Z,14.20
2022-12-19T11:36:31.123Z,14.17
2022-12-19T11:38:58.660Z,13.10
2022-12-19T11:41:31.361Z,13.17
2022-12-19T11:44:03.228Z,14.77
2022-12-19T11:46:37.992Z,17.97
2022-12-19T11:49:12.143Z,14.40
2022-12-19T11:51:44.787Z,12.60
2022-12-19T11:54:17.350Z,12.03
2022-12-19T11:56:46.371Z,11.33
2022-12-19T11:59:20.953Z,15.17
2022-12-19T12:02:15.772Z,13.63
2022-12-19T12:05:10.021Z,11.73
2022-12-19T12:08:25.506Z,12.20
2022-12-19T12:13:29.472Z,12.60
2022-12-19T12:21:17.762Z,13.50
2022-12-19T12:30:38.794Z,15.77
2022-12-19T12:31:07.207Z,13.93
2022-12-19T12:31:26.818Z,13.63
2022-12-19T12:31:39.616Z,18.27
2022-12-19T12:32:04.538Z,14.17
2022-12-19T12:32:06.319Z,13.03
2022-12-19T12:35:15.448Z,14.57
2022-12-19T12:39:33.825Z,20.90
2022-12-19T12:42:10.519Z,16.67
2022-12-19T12:44:45.210Z,18.43
2022-12-19T12:47:18.952Z,15.80
2022-12-19T12:49:48.399Z,15.87
2022-12-19T12:52:17.872Z,15.60
2022-12-19T12:54:48.783Z,17.57
2022-12-19T12:57:19.571Z,18.10
2022-12-19T12:59:48.646Z,15.57
2022-12-19T13:02:22.223Z,16.20
2022-12-19T13:04:58.118Z,16.83
2022-12-19T13:07:30.459Z,15.50
2022-12-19T13:10:23.673Z,16.00
2022-12-19T13:13:00.672Z,17.60
2022-12-19T13:15:49.924Z,14.33
2022-12-19T13:18:38.481Z,14.60
2022-12-19T13:21:09.779Z,13.60
2022-12-19T13:23:46.928Z,14.60
2022-12-19T13:26:39.096Z,16.13
2022-12-19T13:29:32.267Z,14.00
2022-12-19T13:32:13.648Z,18.73
2022-12-19T13:34:54.904Z,15.47
2022-12-19T13:40:02.197Z,15.80
2022-12-19T13:40:33.346Z,17.90
2022-12-19T13:43:23.745Z,18.00
2022-12-19T13:45:53.564Z,15.40
2022-12-19T13:48:28.577Z,17.07
2022-12-19T13:50:58.159Z,17.13
2022-12-19T13:53:27.220Z,15.20
2022-12-19T13:55:55.428Z,15.93
2022-12-19T13:58:29.396Z,16.90
2022-12-19T14:00:59.681Z,17.83
2022-12-19T14:03:35.443Z,15.23
2022-12-19T14:06:17.453Z,14.37
2022-12-19T14:08:47.334Z,14.17
2022-12-19T14:11:41.519Z,13.27
2022-12-19T14:14:27.968Z,12.57
2022-12-19T14:16:56.826Z,13.57
2022-12-19T14:19:27.605Z,12.60
2022-12-19T14:22:15.893Z,10.77
2022-12-19T14:24:54.732Z,14.13
2022-12-19T14:28:26.980Z,17.70
2022-12-19T14:30:30.029Z,13.87
2022-12-19T14:33:47.101Z,9.67
2022-12-19T14:36:07.131Z,10.73
2022-12-19T14:39:23.794Z,8.97
2022-12-19T14:42:01.737Z,9.30
2022-12-19T14:52:51.555Z,11.07
2022-12-19T14:54:06.400Z,9.50
2022-12-19T14:54:22.392Z,13.93
2022-12-19T14:54:23.527Z,10.33
2022-12-19T14:56:29.070Z,9.07
2022-12-19T14:58:58.829Z,13.23
2022-12-19T15:01:28.489Z,10.63
2022-12-19T15:04:48.922Z,9.23
2022-12-19T15:07:07.334Z,13.17
2022-12-19T15:10:58.913Z,10.50
2022-12-19T15:14:46.967Z,10.90
2022-12-19T15:15:41.136Z,11.70
2022-12-19T15:18:21.066Z,12.30
2022-12-19T15:20:48.840Z,12.73
2022-12-19T15:23:21.692Z,9.90
2022-12-19T15:26:07.702Z,11.17
2022-12-19T15:28:40.431Z,13.00
2022-12-19T15:31:15.054Z,12.03
2022-12-19T15:34:06.658Z,8.57
2022-12-19T15:36:30.435Z,9.27
2022-12-19T15:38:57.969Z,9.83
2022-12-19T15:41:25.600Z,11.30
2022-12-19T15:44:04.073Z,10.13
2022-12-19T15:46:32.675Z,10.47
2022-12-19T15:49:00.958Z,12.83
2022-12-19T15:51:28.624Z,9.17
2022-12-19T15:54:04.107Z,10.53
2022-12-19T15:56:46.722Z,9.63
2022-12-19T15:59:24.065Z,10.47
2022-12-19T16:01:52.310Z,11.00
2022-12-19T16:04:20.518Z,11.70
2022-12-19T16:06:48.096Z,9.80
2022-12-19T16:09:21.113Z,9.77
2022-12-19T16:11:49.082Z,9.90
2022-12-19T16:14:20.113Z,12.87
2022-12-19T16:16:51.821Z,12.03
2022-12-19T16:19:25.541Z,11.27
2022-12-19T16:21:54.077Z,12.70
2022-12-19T16:24:21.950Z,10.70
2022-12-19T16:26:52.824Z,9.77
2022-12-19T16:29:24.123Z,10.53
2022-12-19T16:31:52.500Z,9.77
2022-12-19T16:34:22.311Z,9.43
2022-12-19T16:36:50.117Z,10.93
2022-12-19T16:39:18.140Z,13.50
2022-12-19T16:41:46.964Z,10.13
2022-12-19T16:44:19.421Z,12.53
2022-12-19T16:46:51.332Z,10.20
2022-12-19T16:49:22.719Z,10.30
2022-12-19T16:51:50.645Z,11.80
2022-12-19T16:54:19.894Z,9.80
2022-12-19T16:56:49.186Z,11.37
2022-12-19T16:59:20.753Z,8.80
2022-12-19T17:01:50.833Z,10.23
2022-12-19T17:04:21.503Z,7.53
2022-12-19T17:06:49.924Z,10.07
2022-12-19T17:09:19.246Z,9.40
2022-12-19T17:11:48.692Z,8.90
2022-12-19T17:14:20.069Z,8.33
2022-12-19T17:16:49.093Z,9.70
2022-12-19T17:19:21.099Z,9.50
2022-12-19T17:21:49.159Z,10.73
2022-12-19T17:24:17.285Z,9.27
2022-12-19T17:26:45.729Z,8.97
2022-12-19T17:29:13.595Z,11.00
2022-12-19T17:31:42.258Z,9.93
2022-12-19T17:34:19.078Z,10.03
2022-12-19T17:36:46.680Z,11.53
2022-12-19T17:39:22.041Z,10.00
2022-12-19T17:41:49.897Z,10.73
2022-12-19T17:44:17.733Z,12.20
2022-12-19T17:46:45.978Z,12.03
2022-12-19T17:49:17.733Z,11.73
2022-12-19T17:51:47.993Z,10.57
2022-12-19T17:54:15.513Z,10.10
2022-12-19T17:56:43.018Z,12.13
2022-12-19T17:59:10.509Z,11.83
2022-12-19T18:01:41.513Z,10.03
2022-12-19T18:04:13.252Z,10.40
2022-12-19T18:06:42.605Z,10.33
2022-12-19T18:09:19.000Z,11.87
2022-12-19T18:11:46.609Z,10.00
2022-12-19T18:14:16.346Z,10.57
2022-12-19T18:16:45.056Z,10.20
2022-12-19T18:19:17.194Z,10.37
2022-12-19T18:21:46.390Z,10.60
2022-12-19T18:24:14.699Z,12.97
2022-12-19T18:26:42.182Z,15.80
2022-12-19T18:29:09.695Z,10.60
2022-12-19T18:31:37.407Z,11.03
2022-12-19T18:34:08.089Z,10.33
2022-12-19T18:36:40.981Z,10.67
2022-12-19T18:39:19.888Z,11.17
2022-12-19T18:41:47.805Z,9.07
2022-12-19T18:44:17.199Z,12.90
2022-12-19T18:46:45.135Z,10.13
2022-12-19T18:49:13.933Z,11.40
2022-12-19T18:51:41.731Z,9.77
2022-12-19T18:54:15.211Z,11.80
2022-12-19T18:56:42.675Z,15.23
2022-12-19T18:59:10.989Z,11.73
2022-12-19T19:01:41.778Z,10.47
2022-12-19T19:04:12.020Z,13.10
2022-12-19T19:06:43.478Z,10.40
2022-12-19T19:09:18.905Z,11.17
2022-12-19T19:12:12.952Z,11.70
2022-12-19T19:14:41.596Z,11.63
2022-12-19T19:17:16.788Z,10.30
2022-12-19T19:19:44.359Z,13.03
2022-12-19T19:22:11.842Z,10.33
2022-12-19T19:24:40.877Z,13.50
2022-12-19T19:27:08.359Z,10.77
2022-12-19T19:29:35.856Z,12.03
2022-12-19T19:32:03.371Z,11.23
2022-12-19T19:34:33.091Z,10.73
2022-12-19T19:37:02.224Z,9.73
2022-12-19T19:39:32.818Z,9.43
2022-12-19T19:42:01.992Z,9.57
2022-12-19T19:44:29.805Z,10.87
2022-12-19T19:46:57.768Z,12.33
2022-12-19T19:49:25.437Z,10.97
2022-12-19T19:51:57.005Z,10.20
2022-12-19T19:54:29.744Z,10.00
2022-12-19T19:56:57.264Z,14.10
2022-12-19T19:59:26.087Z,11.13
2022-12-19T20:01:54.338Z,9.60
2022-12-19T20:04:22.086Z,8.50
2022-12-19T20:06:49.603Z,10.67
2022-12-19T20:09:17.272Z,11.70
2022-12-19T20:11:44.973Z,9.53
2022-12-19T20:14:14.829Z,12.43
2022-12-19T20:16:44.305Z,11.87
2022-12-19T20:19:11.991Z,9.27
2022-12-19T20:21:39.480Z,10.67
2022-12-19T20:24:08.011Z,11.67
2022-12-19T20:26:35.578Z,10.70
2022-12-19T20:29:03.431Z,9.07
2022-12-19T20:31:32.284Z,11.60
2022-12-19T20:34:01.158Z,11.17
2022-12-19T20:36:28.986Z,11.33
2022-12-19T20:38:56.554Z,9.10
2022-12-19T20:41:24.110Z,10.43
2022-12-19T20:43:53.005Z,8.70
2022-12-19T20:46:22.285Z,11.73
2022-12-19T20:48:50.437Z,10.03
2022-12-19T20:51:21.419Z,9.00
2022-12-19T20:53:49.076Z,9.83
2022-12-19T20:56:18.945Z,7.90
2022-12-19T20:58:47.062Z,8.47
2022-12-19T21:01:16.631Z,11.37
2022-12-19T21:03:47.028Z,9.33
2022-12-19T21:06:20.290Z,11.27
2022-12-19T21:08:47.931Z,10.03
2022-12-19T21:11:16.414Z,8.23
2022-12-19T21:13:44.236Z,9.53
2022-12-19T21:16:14.051Z,12.73
2022-12-19T21:18:42.440Z,9.70
2022-12-19T21:21:12.696Z,7.70
2022-12-19T21:23:42.152Z,10.27
2022-12-19T21:26:09.868Z,8.37
2022-12-19T21:28:37.710Z,11.30
2022-12-19T21:31:08.291Z,8.80
2022-12-19T21:33:35.985Z,9.93
2022-12-19T21:36:07.954Z,9.87
2022-12-19T21:38:35.602Z,8.40
2022-12-19T21:41:05.785Z,8.13
2022-12-19T21:43:33.391Z,8.10
2022-12-19T21:46:08.726Z,9.20
2022-12-19T21:48:38.278Z,10.03
2022-12-19T21:51:06.146Z,8.93
2022-12-19T21:53:34.311Z,8.10
2022-12-19T21:56:07.899Z,7.60
2022-12-19T21:58:35.667Z,8.50
2022-12-19T22:01:08.508Z,7.77
2022-12-19T22:03:36.447Z,6.63
2022-12-19T22:06:04.678Z,7.87
2022-12-19T22:08:32.339Z,7.70
2022-12-19T22:10:59.878Z,7.73
2022-12-19T22:13:29.022Z,9.97
2022-12-19T22:16:01.346Z,6.67
2022-12-19T22:18:29.363Z,8.43
2022-12-19T22:20:57.907Z,10.73
2022-12-19T22:23:25.744Z,8.87
2022-12-19T22:26:01.893Z,8.43
2022-12-19T22:28:32.333Z,10.00
2022-12-19T22:31:00.131Z,7.77
2022-12-19T22:33:27.859Z,6.27
2022-12-19T22:35:55.293Z,7.57
2022-12-19T22:38:22.867Z,7.77
2022-12-19T22:40:50.377Z,7.00
2022-12-19T22:43:17.853Z,9.83
2022-12-19T22:45:46.703Z,6.67
2022-12-19T22:48:14.204Z,5.87
2022-12-19T22:50:46.892Z,7.93
2022-12-19T22:53:15.042Z,5.93
2022-12-19T22:55:42.996Z,7.53
2022-12-19T22:58:10.664Z,7.27
2022-12-19T23:00:38.160Z,6.77
2022-12-19T23:03:07.605Z,13.43
2022-12-19T23:05:36.581Z,5.87
2022-12-19T23:08:04.228Z,6.67
2022-12-19T23:10:31.751Z,9.50
2022-12-19T23:12:59.231Z,8.20
2022-12-19T23:15:26.754Z,8.33
2022-12-19T23:17:54.272Z,7.67
2022-12-19T23:20:23.140Z,8.40
2022-12-19T23:22:50.651Z,9.13
2022-12-19T23:25:18.964Z,6.40
2022-12-19T23:27:47.135Z,8.73
2022-12-19T23:30:14.702Z,7.67
2022-12-19T23:32:48.735Z,8.20
2022-12-19T23:35:18.206Z,7.37
2022-12-19T23:37:47.033Z,7.73
2022-12-19T23:40:14.636Z,10.23
2022-12-19T23:42:42.282Z,6.43
2022-12-19T23:45:10.545Z,10.77
2022-12-19T23:47:38.142Z,7.63
2022-12-19T23:50:06.722Z,11.10
2022-12-19T23:52:34.240Z,7.77
2022-12-19T23:55:03.067Z,7.10
2022-12-19T23:57:30.667Z,5.83
2022-12-19T23:59:58.183Z,9.00
